Time;durP1;ratioP1;P1;durP2;ratioP2;P2;SDS_P1;SDS_P2;PMS_P1;PMS_P2;Temp;Humidity;BMP_temperature;BMP_pressure;BME280_temperature;BME280_humidity;BME280_pressure;Samples;Min_cycle;Max_cycle;Signal;HPM_P1;HPM_P2
2022/01/25 00:26:21;;;;;;;85.90;40.42;;;;;;;;;;6280767;28;20692;-65
2022/01/25 00:29:33;;;;;;;87.20;39.70;;;;;;;;;;6277562;28;20417;-65
2022/01/25 00:32:35;;;;;;;89.53;41.00;;;;;;;;;;6274416;28;20047;-66
2022/01/25 00:35:36;;;;;;;85.40;40.83;;;;;;;;;;6277097;28;20040;-66
2022/01/25 00:38:38;;;;;;;89.22;42.05;;;;;;;;;;6278550;28;20488;-66
2022/01/25 00:41:40;;;;;;;89.65;41.22;;;;;;;;;;6280405;28;20161;-66
2022/01/25 00:44:47;;;;;;;93.25;42.92;;;;;;;;;;6282313;28;20516;-65
2022/01/25 00:47:50;;;;;;;88.70;40.35;;;;;;;;;;6280474;28;20072;-66
2022/01/25 00:51:02;;;;;;;93.10;42.17;;;;;;;;;;6277356;28;20053;-66
2022/01/25 00:54:10;;;;;;;87.10;40.42;;;;;;;;;;6279392;28;20444;-65
2022/01/25 00:57:12;;;;;;;93.03;40.95;;;;;;;;;;6277530;28;20120;-66
2022/01/25 01:00:16;;;;;;;92.47;41.92;;;;;;;;;;6276476;28;20511;-65
2022/01/25 01:03:17;;;;;;;93.15;41.42;;;;;;;;;;6275517;28;20555;-65
2022/01/25 01:06:19;;;;;;;90.55;40.33;;;;;;;;;;6277774;28;20126;-66
2022/01/25 01:09:22;;;;;;;94.60;41.42;;;;;;;;;;6276129;28;20052;-65
2022/01/25 01:12:49;;;;;;;85.32;39.65;;;;;;;;;;6279547;28;20068;-65
2022/01/25 01:16:00;;;;;;;93.50;41.13;;;;;;;;;;6280455;28;20063;-66
2022/01/25 01:32:54;;;;;;;88.45;40.45;;;;;;;;;;6284125;28;20075;-66
2022/01/25 01:39:33;;;;;;;86.88;39.20;;;;;;;;;;6253788;28;20052;-66
2022/01/25 01:42:54;;;;;;;83.32;39.70;;;;;;;;;;6278741;28;20045;-65
2022/01/25 01:46:02;;;;;;;93.97;40.50;;;;;;;;;;6277537;28;20618;-66
2022/01/25 01:49:07;;;;;;;89.68;40.72;;;;;;;;;;6279150;28;20080;-65
2022/01/25 01:52:09;;;;;;;92.72;41.03;;;;;;;;;;6280370;28;20115;-65
2022/01/25 01:55:12;;;;;;;90.30;41.50;;;;;;;;;;6278967;28;20459;-65
2022/01/25 01:58:15;;;;;;;86.40;39.85;;;;;;;;;;6278818;28;20056;-65
2022/01/25 02:01:18;;;;;;;89.30;41.08;;;;;;;;;;6273485;28;20505;-65
2022/01/25 02:04:21;;;;;;;86.00;39.80;;;;;;;;;;6281059;28;20071;-66
2022/01/25 02:07:22;;;;;;;91.88;41.72;;;;;;;;;;6269650;28;20102;-66
2022/01/25 02:10:24;;;;;;;91.45;39.30;;;;;;;;;;6270012;28;20049;-65
2022/01/25 02:13:26;;;;;;;93.70;41.30;;;;;;;;;;6278104;28;20516;-66
2022/01/25 02:16:39;;;;;;;88.55;40.67;;;;;;;;;;6276222;28;20052;-66
2022/01/25 02:23:14;;;;;;;86.13;40.30;;;;;;;;;;6290289;28;20132;-65
2022/01/25 02:26:15;;;;;;;89.57;40.65;;;;;;;;;;6280892;28;20562;-66
2022/01/25 02:29:17;;;;;;;91.88;42.75;;;;;;;;;;6285647;28;20219;-66
2022/01/25 02:32:19;;;;;;;90.90;41.70;;;;;;;;;;6277494;28;20453;-65
2022/01/25 02:35:22;;;;;;;90.93;41.50;;;;;;;;;;6282864;28;20052;-65
2022/01/25 02:38:25;;;;;;;89.63;41.88;;;;;;;;;;6281235;28;20093;-65
2022/01/25 02:41:27;;;;;;;94.88;41.60;;;;;;;;;;6283924;28;20049;-65
2022/01/25 02:44:29;;;;;;;91.75;41.25;;;;;;;;;;6278745;28;20053;-65
2022/01/25 02:50:51;;;;;;;96.18;44.03;;;;;;;;;;6279658;28;20080;-65
2022/01/25 02:53:53;;;;;;;95.82;41.95;;;;;;;;;;6276940;28;20108;-65
2022/01/25 02:56:54;;;;;;;91.88;42.28;;;;;;;;;;6288271;28;20134;-65
2022/01/25 02:59:56;;;;;;;83.88;39.17;;;;;;;;;;6290074;28;20075;-67
2022/01/25 03:02:58;;;;;;;88.30;40.72;;;;;;;;;;6283619;28;20074;-66
2022/01/25 03:06:01;;;;;;;91.50;41.72;;;;;;;;;;6286515;28;20420;-66
2022/01/25 03:09:05;;;;;;;91.68;41.33;;;;;;;;;;6280337;28;20552;-66
2022/01/25 03:12:12;;;;;;;86.78;41.67;;;;;;;;;;6279104;28;20512;-65
2022/01/25 03:15:30;;;;;;;98.93;43.63;;;;;;;;;;6283462;28;20052;-65
2022/01/25 03:18:45;;;;;;;95.80;41.88;;;;;;;;;;6277387;28;20041;-65
2022/01/25 03:21:48;;;;;;;95.80;42.97;;;;;;;;;;6278327;28;20044;-66
2022/01/25 03:24:50;;;;;;;103.43;43.97;;;;;;;;;;6285171;28;20391;-66
2022/01/25 03:27:52;;;;;;;94.65;40.95;;;;;;;;;;6284491;28;20137;-66
2022/01/25 03:30:53;;;;;;;96.88;42.88;;;;;;;;;;6280067;28;20131;-65
2022/01/25 03:33:55;;;;;;;92.50;41.83;;;;;;;;;;6283340;28;20064;-65
2022/01/25 03:36:58;;;;;;;97.22;41.97;;;;;;;;;;6277678;28;20100;-66
2022/01/25 03:39:59;;;;;;;88.97;41.72;;;;;;;;;;6281158;28;20150;-65
2022/01/25 03:43:03;;;;;;;104.05;44.50;;;;;;;;;;6282315;28;20051;-65
2022/01/25 03:46:12;;;;;;;97.03;43.17;;;;;;;;;;6280938;28;20222;-66
2022/01/25 03:52:36;;;;;;;100.45;43.45;;;;;;;;;;6283948;28;20071;-65
2022/01/25 03:55:38;;;;;;;98.18;42.38;;;;;;;;;;6283876;28;20045;-65
2022/01/25 03:58:40;;;;;;;97.78;42.05;;;;;;;;;;6286261;28;20053;-65
2022/01/25 04:01:42;;;;;;;100.47;42.97;;;;;;;;;;6282548;28;20048;-65
2022/01/25 04:04:45;;;;;;;94.88;41.60;;;;;;;;;;6278940;28;20497;-65
2022/01/25 04:07:50;;;;;;;101.32;44.50;;;;;;;;;;6280720;28;20512;-65
2022/01/25 04:10:51;;;;;;;103.05;43.17;;;;;;;;;;6274712;28;20045;-65
2022/01/25 04:13:55;;;;;;;96.93;41.45;;;;;;;;;;6286825;28;20124;-65
2022/01/25 04:17:00;;;;;;;101.13;42.13;;;;;;;;;;6284033;28;20047;-66
2022/01/25 04:20:14;;;;;;;96.68;42.75;;;;;;;;;;6282106;28;20474;-66
2022/01/25 04:26:45;;;;;;;89.78;38.92;;;;;;;;;;6251374;28;20083;-65
2022/01/25 04:29:46;;;;;;;99.65;40.13;;;;;;;;;;6283091;28;20111;-65
2022/01/25 04:32:54;;;;;;;100.88;42.38;;;;;;;;;;6284672;28;20098;-66
2022/01/25 04:36:09;;;;;;;90.90;40.88;;;;;;;;;;6281009;28;20096;-65
2022/01/25 04:49:15;;;;;;;89.68;39.10;;;;;;;;;;6280798;28;20052;-66
2022/01/25 04:52:20;;;;;;;94.60;40.80;;;;;;;;;;6284407;28;20049;-65
2022/01/25 04:55:30;;;;;;;87.07;38.78;;;;;;;;;;6283171;28;20049;-65
2022/01/25 04:58:38;;;;;;;91.85;40.42;;;;;;;;;;6281272;28;20481;-66
2022/01/25 05:01:41;;;;;;;85.57;37.67;;;;;;;;;;6283484;28;20098;-66
2022/01/25 05:04:48;;;;;;;89.53;37.08;;;;;;;;;;6281840;28;20048;-65
2022/01/25 05:07:56;;;;;;;100.93;40.63;;;;;;;;;;6278576;28;20417;-66
2022/01/25 05:11:05;;;;;;;89.63;38.35;;;;;;;;;;6279207;28;20072;-66
2022/01/25 05:14:16;;;;;;;89.53;38.72;;;;;;;;;;6278964;28;20044;-66
2022/01/25 05:17:22;;;;;;;90.15;38.35;;;;;;;;;;6279610;28;20045;-66
2022/01/25 05:23:32;;;;;;;91.22;38.38;;;;;;;;;;6281778;28;20123;-66
2022/01/25 05:26:35;;;;;;;86.30;36.75;;;;;;;;;;6278100;28;20045;-65
2022/01/25 05:29:37;;;;;;;93.68;38.53;;;;;;;;;;6274892;28;20080;-65
2022/01/25 05:32:39;;;;;;;91.13;37.63;;;;;;;;;;6279311;28;20124;-66
2022/01/25 05:35:40;;;;;;;88.93;36.50;;;;;;;;;;6273697;28;20168;-66
2022/01/25 05:38:43;;;;;;;92.57;38.78;;;;;;;;;;6272435;28;20096;-66
2022/01/25 05:41:54;;;;;;;88.28;37.22;;;;;;;;;;6273165;28;20509;-66
2022/01/25 05:45:12;;;;;;;79.47;35.38;;;;;;;;;;6277670;28;20417;-66
2022/01/25 05:48:14;;;;;;;96.70;38.85;;;;;;;;;;6282637;28;20037;-66
2022/01/25 05:51:16;;;;;;;93.40;38.38;;;;;;;;;;6280243;28;20397;-65
2022/01/25 05:54:17;;;;;;;84.20;37.97;;;;;;;;;;6280208;28;20553;-66
2022/01/25 05:57:20;;;;;;;97.80;40.40;;;;;;;;;;6284846;28;20049;-67
2022/01/25 06:00:22;;;;;;;86.60;38.92;;;;;;;;;;6279709;28;20119;-66
2022/01/25 06:03:24;;;;;;;96.93;40.88;;;;;;;;;;6281927;28;20147;-66
2022/01/25 06:06:25;;;;;;;93.00;38.58;;;;;;;;;;6283992;28;20417;-66
2022/01/25 06:09:27;;;;;;;88.95;40.05;;;;;;;;;;6279610;28;20081;-66
2022/01/25 06:12:30;;;;;;;92.05;39.33;;;;;;;;;;6286101;28;20045;-66
2022/01/25 06:15:32;;;;;;;91.30;38.05;;;;;;;;;;6278757;28;20080;-66
2022/01/25 06:18:34;;;;;;;93.07;39.33;;;;;;;;;;6282101;28;20062;-66
2022/01/25 06:21:35;;;;;;;86.07;37.80;;;;;;;;;;6279333;28;20084;-66
2022/01/25 06:24:37;;;;;;;95.97;41.55;;;;;;;;;;6282585;28;20118;-66
2022/01/25 06:27:40;;;;;;;94.57;40.58;;;;;;;;;;6276365;28;20088;-64
2022/01/25 06:30:42;;;;;;;97.95;42.55;;;;;;;;;;6275377;28;20536;-65
2022/01/25 06:33:43;;;;;;;88.88;40.35;;;;;;;;;;6281864;28;20186;-65
2022/01/25 06:36:46;;;;;;;95.22;40.40;;;;;;;;;;6276831;28;20056;-65
2022/01/25 06:39:49;;;;;;;98.65;41.58;;;;;;;;;;6277978;28;20496;-64
2022/01/25 06:42:52;;;;;;;92.25;40.80;;;;;;;;;;6284636;28;20519;-65
2022/01/25 06:45:59;;;;;;;95.05;41.42;;;;;;;;;;6281406;28;20134;-65
2022/01/25 06:49:00;;;;;;;93.85;41.20;;;;;;;;;;6278608;28;20057;-65
2022/01/25 06:52:02;;;;;;;103.60;42.42;;;;;;;;;;6283239;28;20049;-65
2022/01/25 06:55:06;;;;;;;99.70;42.60;;;;;;;;;;6281101;28;20072;-64
2022/01/25 06:58:10;;;;;;;94.57;41.88;;;;;;;;;;6277239;28;20547;-64
2022/01/25 07:01:11;;;;;;;104.35;41.97;;;;;;;;;;6285258;28;20049;-65
2022/01/25 07:04:13;;;;;;;98.82;43.05;;;;;;;;;;6281600;28;20111;-64
2022/01/25 07:07:15;;;;;;;99.40;43.00;;;;;;;;;;6286669;28;20102;-64
2022/01/25 07:10:17;;;;;;;107.40;42.88;;;;;;;;;;6284741;28;20098;-65
2022/01/25 07:13:20;;;;;;;109.20;42.30;;;;;;;;;;6284583;28;20496;-64
2022/01/25 07:16:22;;;;;;;101.38;39.95;;;;;;;;;;6281996;28;20092;-64
2022/01/25 07:19:25;;;;;;;119.88;44.63;;;;;;;;;;6287327;28;20448;-64
2022/01/25 07:22:27;;;;;;;111.60;46.28;;;;;;;;;;6281664;28;20045;-64
2022/01/25 07:25:29;;;;;;;107.47;43.50;;;;;;;;;;6277992;28;20048;-65
2022/01/25 07:28:33;;;;;;;104.60;43.80;;;;;;;;;;6280488;28;20084;-65
2022/01/25 07:31:35;;;;;;;104.15;42.65;;;;;;;;;;6286482;28;20055;-65
2022/01/25 07:34:37;;;;;;;102.30;42.47;;;;;;;;;;6279445;28;20045;-65
2022/01/25 07:37:38;;;;;;;106.85;43.05;;;;;;;;;;6277477;28;20626;-65
2022/01/25 07:40:40;;;;;;;107.82;44.42;;;;;;;;;;6280396;28;20512;-64
2022/01/25 07:43:43;;;;;;;97.70;40.80;;;;;;;;;;6276459;28;20498;-64
2022/01/25 07:46:45;;;;;;;117.78;45.63;;;;;;;;;;6278828;28;20071;-64
2022/01/25 07:49:46;;;;;;;111.13;44.88;;;;;;;;;;6276714;28;20124;-64
2022/01/25 07:52:48;;;;;;;118.78;43.13;;;;;;;;;;6281740;28;20049;-64
2022/01/25 07:55:50;;;;;;;104.03;41.47;;;;;;;;;;6284958;28;20091;-64
2022/01/25 07:58:53;;;;;;;102.07;40.65;;;;;;;;;;6279863;28;20084;-64
2022/01/25 08:01:54;;;;;;;103.18;41.60;;;;;;;;;;6285136;28;20125;-65
2022/01/25 08:04:56;;;;;;;112.65;43.38;;;;;;;;;;6282499;28;20143;-65
2022/01/25 08:07:59;;;;;;;104.75;42.58;;;;;;;;;;6280354;28;20061;-65
2022/01/25 08:11:01;;;;;;;99.75;42.47;;;;;;;;;;6287028;28;20467;-65
2022/01/25 08:14:13;;;;;;;101.60;41.03;;;;;;;;;;6285045;28;20127;-65
2022/01/25 08:17:16;;;;;;;97.38;42.10;;;;;;;;;;6286007;28;20045;-65
2022/01/25 08:20:18;;;;;;;108.38;43.97;;;;;;;;;;6283003;28;20501;-65
2022/01/25 08:23:19;;;;;;;100.28;40.70;;;;;;;;;;6279888;28;20137;-65
2022/01/25 08:26:21;;;;;;;108.90;43.15;;;;;;;;;;6259131;28;20128;-65
2022/01/25 08:29:24;;;;;;;94.55;38.33;;;;;;;;;;6287381;28;20040;-65
2022/01/25 08:32:25;;;;;;;98.90;41.58;;;;;;;;;;6285437;28;20052;-65
2022/01/25 08:35:27;;;;;;;99.05;40.30;;;;;;;;;;6285302;28;20128;-65
2022/01/25 08:38:29;;;;;;;102.85;41.65;;;;;;;;;;6287008;28;20071;-65
2022/01/25 08:41:30;;;;;;;108.68;43.28;;;;;;;;;;6286796;28;20678;-66
2022/01/25 08:44:33;;;;;;;102.88;42.17;;;;;;;;;;6281684;28;20171;-66
2022/01/25 08:47:36;;;;;;;101.60;43.92;;;;;;;;;;6286705;28;20143;-64
2022/01/25 08:50:37;;;;;;;105.10;43.70;;;;;;;;;;6284387;28;20416;-64
2022/01/25 08:53:39;;;;;;;102.65;41.33;;;;;;;;;;6284131;28;20131;-65
2022/01/25 08:56:41;;;;;;;101.32;42.08;;;;;;;;;;6285099;28;20129;-64
2022/01/25 08:59:44;;;;;;;105.00;42.20;;;;;;;;;;6280607;28;20052;-64
2022/01/25 09:02:46;;;;;;;90.88;39.92;;;;;;;;;;6284475;28;20484;-65
2022/01/25 09:05:47;;;;;;;107.72;44.63;;;;;;;;;;6284175;28;20558;-65
2022/01/25 09:08:50;;;;;;;105.07;44.72;;;;;;;;;;6280761;28;20315;-64
2022/01/25 09:11:51;;;;;;;103.25;44.33;;;;;;;;;;6285891;28;20064;-64
2022/01/25 09:14:54;;;;;;;108.13;44.05;;;;;;;;;;6278238;28;20375;-65
2022/01/25 09:17:56;;;;;;;108.72;45.55;;;;;;;;;;6279228;28;20511;-65
2022/01/25 09:20:58;;;;;;;109.60;45.85;;;;;;;;;;6284383;28;20048;-65
2022/01/25 09:24:00;;;;;;;104.60;43.65;;;;;;;;;;6284737;28;20044;-65
2022/01/25 09:27:04;;;;;;;112.25;46.10;;;;;;;;;;6286356;28;20439;-65
2022/01/25 09:30:08;;;;;;;;;;;;;;;;;;6280654;28;20150;-64
2022/01/25 09:33:09;;;;;;;111.88;45.13;;;;;;;;;;6282778;28;19948;-65
2022/01/25 09:36:11;;;;;;;107.65;46.70;;;;;;;;;;6281573;28;20045;-64
2022/01/25 09:39:12;;;;;;;104.05;48.08;;;;;;;;;;6282981;28;20128;-65
2022/01/25 09:42:14;;;;;;;116.57;47.33;;;;;;;;;;6283118;28;20071;-64
2022/01/25 09:45:17;;;;;;;107.25;46.22;;;;;;;;;;6279558;28;20044;-64
2022/01/25 09:48:19;;;;;;;116.50;48.83;;;;;;;;;;6286134;28;20511;-65
2022/01/25 09:51:21;;;;;;;117.30;47.60;;;;;;;;;;6283312;28;20287;-65
2022/01/25 09:54:22;;;;;;;109.30;48.47;;;;;;;;;;6283511;28;20044;-65
2022/01/25 09:57:24;;;;;;;121.18;50.05;;;;;;;;;;6290419;28;20101;-65
2022/01/25 10:00:32;;;;;;;119.30;49.13;;;;;;;;;;6284977;28;20135;-64
2022/01/25 10:03:37;;;;;;;121.70;50.97;;;;;;;;;;6286033;28;20052;-66
2022/01/25 10:06:39;;;;;;;128.32;50.28;;;;;;;;;;6281011;28;20410;-65
2022/01/25 10:09:44;;;;;;;126.95;49.05;;;;;;;;;;6285363;28;20052;-65
2022/01/25 10:12:45;;;;;;;123.07;48.95;;;;;;;;;;6283421;28;20577;-64
2022/01/25 10:15:49;;;;;;;129.00;49.55;;;;;;;;;;6280382;28;20138;-65
2022/01/25 10:18:52;;;;;;;113.25;46.30;;;;;;;;;;6285887;28;20098;-64
2022/01/25 10:21:54;;;;;;;119.38;49.22;;;;;;;;;;6280260;28;20045;-65
2022/01/25 10:24:56;;;;;;;111.53;44.10;;;;;;;;;;6278327;28;20072;-65
2022/01/25 10:28:01;;;;;;;111.03;45.45;;;;;;;;;;6282958;28;20056;-66
2022/01/25 10:31:05;;;;;;;107.32;46.10;;;;;;;;;;6279470;28;20386;-64
2022/01/25 10:34:09;;;;;;;106.85;45.47;;;;;;;;;;6279100;28;20114;-66
2022/01/25 10:37:11;;;;;;;111.32;48.38;;;;;;;;;;6274978;28;20205;-65
2022/01/25 10:40:13;;;;;;;111.40;45.92;;;;;;;;;;6282454;28;20067;-65
2022/01/25 10:43:15;;;;;;;123.22;50.45;;;;;;;;;;6276115;28;20053;-65
2022/01/25 10:46:22;;;;;;;102.93;46.40;;;;;;;;;;6275934;28;20071;-65
2022/01/25 10:49:24;;;;;;;111.40;45.03;;;;;;;;;;6274747;28;20053;-65
2022/01/25 10:52:27;;;;;;;105.15;46.00;;;;;;;;;;6277346;28;20056;-65
2022/01/25 10:55:37;;;;;;;113.68;44.53;;;;;;;;;;6283733;28;20127;-65
2022/01/25 10:58:40;;;;;;;111.78;45.63;;;;;;;;;;6277989;28;20518;-65
2022/01/25 11:01:49;;;;;;;105.32;44.85;;;;;;;;;;6278243;28;20045;-65
2022/01/25 11:04:52;;;;;;;106.90;44.42;;;;;;;;;;6274906;28;20122;-64
2022/01/25 11:07:53;;;;;;;102.63;43.78;;;;;;;;;;6277386;28;20452;-65
2022/01/25 11:10:58;;;;;;;111.05;43.85;;;;;;;;;;6278577;28;20056;-65
2022/01/25 11:14:50;;;;;;;96.85;42.50;;;;;;;;;;6288727;28;20075;-66
2022/01/25 11:17:24;;;;;;;97.72;41.65;;;;;;;;;;6288189;28;20097;-64
2022/01/25 11:20:26;;;;;;;99.32;43.55;;;;;;;;;;6288352;28;20127;-65
2022/01/25 11:23:28;;;;;;;100.63;40.92;;;;;;;;;;6277888;28;20112;-64
2022/01/25 11:26:30;;;;;;;90.55;39.83;;;;;;;;;;6290206;28;20503;-65
2022/01/25 11:29:32;;;;;;;110.57;41.63;;;;;;;;;;6284380;28;20044;-65
2022/01/25 11:32:39;;;;;;;96.93;39.97;;;;;;;;;;6278443;28;20076;-65
2022/01/25 11:35:41;;;;;;;85.40;37.15;;;;;;;;;;6288494;28;20081;-65
2022/01/25 11:38:44;;;;;;;95.43;40.03;;;;;;;;;;6287210;28;20483;-65
2022/01/25 11:41:46;;;;;;;100.20;40.65;;;;;;;;;;6282050;28;20133;-65
2022/01/25 11:44:49;;;;;;;90.07;38.35;;;;;;;;;;6279990;28;20056;-65
2022/01/25 11:47:54;;;;;;;89.38;38.20;;;;;;;;;;6279325;28;20128;-65
2022/01/25 11:50:55;;;;;;;87.97;38.08;;;;;;;;;;6281669;28;20052;-64
2022/01/25 11:54:04;;;;;;;83.18;36.85;;;;;;;;;;6278156;28;20049;-65
2022/01/25 11:57:10;;;;;;;94.63;38.80;;;;;;;;;;6283382;28;20044;-65
2022/01/25 12:00:12;;;;;;;93.93;39.10;;;;;;;;;;6281230;28;20048;-65
2022/01/25 12:03:28;;;;;;;91.93;38.70;;;;;;;;;;6282904;28;20086;-66
2022/01/25 12:06:33;;;;;;;93.22;38.42;;;;;;;;;;6283526;28;20488;-66
2022/01/25 12:09:49;;;;;;;97.15;39.83;;;;;;;;;;6282748;28;20390;-65
2022/01/25 12:13:12;;;;;;;86.65;36.47;;;;;;;;;;6288157;28;20040;-66
2022/01/25 12:16:26;;;;;;;85.63;39.13;;;;;;;;;;6280289;28;20540;-64
2022/01/25 12:19:44;;;;;;;81.75;36.17;;;;;;;;;;6277671;28;20532;-65
2022/01/25 12:22:48;;;;;;;82.53;36.58;;;;;;;;;;6278617;28;20408;-65
2022/01/25 12:25:53;;;;;;;85.00;35.47;;;;;;;;;;6285024;28;20044;-65
2022/01/25 12:29:31;;;;;;;80.65;36.63;;;;;;;;;;6283785;28;20178;-64
2022/01/25 12:32:35;;;;;;;81.65;35.40;;;;;;;;;;6278162;28;20098;-64
2022/01/25 12:35:39;;;;;;;;;;;;;;;;;;6279310;28;20052;-65
2022/01/25 12:38:43;;;;;;;76.97;32.85;;;;;;;;;;6277730;28;20545;-65
2022/01/25 12:41:45;;;;;;;77.65;34.45;;;;;;;;;;6290105;28;20060;-66
2022/01/25 12:44:54;;;;;;;78.43;34.58;;;;;;;;;;6282126;28;20471;-65
2022/01/25 12:47:57;;;;;;;77.82;35.00;;;;;;;;;;6282204;28;20155;-65
2022/01/25 12:51:03;;;;;;;79.07;37.30;;;;;;;;;;6286868;28;20130;-64
2022/01/25 12:54:07;;;;;;;82.70;36.53;;;;;;;;;;6279005;28;20052;-64
2022/01/25 12:57:09;;;;;;;80.75;36.55;;;;;;;;;;6284575;28;20108;-64
2022/01/25 13:00:12;;;;;;;75.40;37.67;;;;;;;;;;6281310;28;20086;-64
2022/01/25 13:03:20;;;;;;;78.30;37.28;;;;;;;;;;6282369;28;20437;-65
2022/01/25 13:06:24;;;;;;;77.45;36.85;;;;;;;;;;6278290;28;20127;-65
2022/01/25 13:09:29;;;;;;;76.43;37.55;;;;;;;;;;6286475;28;20053;-65
2022/01/25 13:12:36;;;;;;;74.95;35.55;;;;;;;;;;6286747;28;20079;-65
2022/01/25 13:15:52;;;;;;;82.30;38.58;;;;;;;;;;6285624;28;20040;-65
2022/01/25 13:18:59;;;;;;;90.88;39.15;;;;;;;;;;6287479;28;20432;-65
2022/01/25 13:22:07;;;;;;;83.18;36.88;;;;;;;;;;6280566;28;20096;-65
2022/01/25 13:25:14;;;;;;;78.57;35.80;;;;;;;;;;6279664;28;20079;-65
2022/01/25 13:28:31;;;;;;;80.63;36.72;;;;;;;;;;6279316;28;20102;-65
2022/01/25 13:31:33;;;;;;;78.57;35.35;;;;;;;;;;6280112;28;20048;-65
2022/01/25 13:34:36;;;;;;;79.97;34.35;;;;;;;;;;6280649;28;20102;-65
2022/01/25 13:37:40;;;;;;;75.55;34.58;;;;;;;;;;6281318;28;20057;-65
2022/01/25 13:40:50;;;;;;;76.10;35.57;;;;;;;;;;6280287;28;20110;-65
2022/01/25 13:47:11;;;;;;;79.00;35.83;;;;;;;;;;6263547;28;20037;-64
2022/01/25 13:50:13;;;;;;;74.78;34.75;;;;;;;;;;6275983;28;20047;-65
2022/01/25 13:53:19;;;;;;;73.38;33.88;;;;;;;;;;6282949;28;20084;-64
2022/01/25 13:56:22;;;;;;;68.85;32.90;;;;;;;;;;6282477;28;20559;-65
2022/01/25 13:59:25;;;;;;;76.63;34.83;;;;;;;;;;6278074;28;20544;-65
2022/01/25 14:02:27;;;;;;;77.90;35.38;;;;;;;;;;6279726;28;20135;-65
2022/01/25 14:05:36;;;;;;;77.25;33.15;;;;;;;;;;6280403;28;20045;-65
2022/01/25 14:08:42;;;;;;;78.55;34.35;;;;;;;;;;6285714;28;20037;-63
2022/01/25 14:25:06;;;;;;;75.15;33.75;;;;;;;;;;6284906;28;20048;-64
2022/01/25 14:28:10;;;;;;;70.95;30.60;;;;;;;;;;6285801;28;20102;-64
2022/01/25 14:31:17;;;;;;;69.88;32.63;;;;;;;;;;6287884;28;20106;-65
2022/01/25 14:34:20;;;;;;;68.95;30.90;;;;;;;;;;6284195;28;20092;-64
2022/01/25 14:37:22;;;;;;;69.63;30.00;;;;;;;;;;6282804;28;20408;-64
2022/01/25 14:40:25;;;;;;;75.15;32.85;;;;;;;;;;6281974;28;20422;-64
2022/01/25 14:43:29;;;;;;;68.22;29.73;;;;;;;;;;6285531;28;20060;-65
2022/01/25 14:46:35;;;;;;;70.88;32.55;;;;;;;;;;6282657;28;20481;-65
2022/01/25 14:49:41;;;;;;;67.30;32.70;;;;;;;;;;6283013;28;20100;-65
2022/01/25 14:52:43;;;;;;;70.43;30.63;;;;;;;;;;6282723;28;20044;-65
2022/01/25 14:55:47;;;;;;;72.00;30.60;;;;;;;;;;6280945;28;20179;-65
2022/01/25 15:02:09;;;;;;;66.90;29.42;;;;;;;;;;6285767;28;20131;-65
2022/01/25 15:05:11;;;;;;;65.65;29.23;;;;;;;;;;6280632;28;20128;-65
2022/01/25 15:08:12;;;;;;;66.05;30.05;;;;;;;;;;6284086;28;20119;-65
2022/01/25 15:11:15;;;;;;;72.70;31.25;;;;;;;;;;6277615;28;20132;-65
2022/01/25 15:14:19;;;;;;;64.93;29.05;;;;;;;;;;6278802;28;20052;-64
2022/01/25 15:17:21;;;;;;;60.03;29.15;;;;;;;;;;6274472;28;20548;-64
2022/01/25 15:20:23;;;;;;;62.53;28.42;;;;;;;;;;6280645;28;20045;-65
2022/01/25 15:23:28;;;;;;;65.72;29.60;;;;;;;;;;6275033;28;20076;-65
2022/01/25 15:26:35;;;;;;;70.15;29.48;;;;;;;;;;6277997;28;20041;-65
2022/01/25 15:29:37;;;;;;;68.10;29.05;;;;;;;;;;6278701;28;20045;-65
2022/01/25 15:32:39;;;;;;;60.67;27.92;;;;;;;;;;6276115;28;20504;-65
2022/01/25 15:35:41;;;;;;;64.95;27.63;;;;;;;;;;6277060;28;20048;-65
2022/01/25 15:38:44;;;;;;;63.08;28.35;;;;;;;;;;6273399;28;20045;-64
2022/01/25 15:41:48;;;;;;;65.28;28.15;;;;;;;;;;6279282;28;20053;-65
2022/01/25 15:44:52;;;;;;;60.42;29.23;;;;;;;;;;6277411;28;20052;-65
2022/01/25 15:47:53;;;;;;;59.97;26.40;;;;;;;;;;6281466;28;20083;-65
2022/01/25 15:50:55;;;;;;;58.58;26.60;;;;;;;;;;6281554;28;20123;-65
2022/01/25 15:53:58;;;;;;;61.03;26.02;;;;;;;;;;6279251;28;20076;-65
2022/01/25 15:57:01;;;;;;;61.45;27.02;;;;;;;;;;6279532;28;20059;-65
2022/01/25 16:00:05;;;;;;;61.47;27.65;;;;;;;;;;6279472;28;20527;-64
2022/01/25 16:03:07;;;;;;;67.87;29.30;;;;;;;;;;6280973;28;20095;-65
2022/01/25 16:06:10;;;;;;;60.30;27.48;;;;;;;;;;6282730;28;20041;-64
2022/01/25 16:09:11;;;;;;;70.13;29.90;;;;;;;;;;6283745;28;20041;-64
2022/01/25 16:12:14;;;;;;;70.45;26.45;;;;;;;;;;6283712;28;20041;-64
2022/01/25 16:15:16;;;;;;;60.15;26.02;;;;;;;;;;6284884;28;20458;-64
2022/01/25 16:18:18;;;;;;;62.28;27.38;;;;;;;;;;6279130;28;20444;-64
2022/01/25 16:21:20;;;;;;;60.30;25.75;;;;;;;;;;6280312;28;20218;-64
2022/01/25 16:24:21;;;;;;;63.03;27.67;;;;;;;;;;6276664;28;20055;-64
2022/01/25 16:27:24;;;;;;;63.15;27.92;;;;;;;;;;6280987;28;20504;-64
2022/01/25 16:30:26;;;;;;;54.38;24.15;;;;;;;;;;6274893;28;20068;-64
2022/01/25 16:33:28;;;;;;;59.05;25.10;;;;;;;;;;6281006;28;20137;-64
2022/01/25 16:36:30;;;;;;;53.63;24.42;;;;;;;;;;6278049;28;20044;-64
2022/01/25 16:39:32;;;;;;;54.97;24.35;;;;;;;;;;6275131;28;20048;-64
2022/01/25 16:42:35;;;;;;;55.53;23.27;;;;;;;;;;6274711;28;20556;-64
2022/01/25 16:45:37;;;;;;;52.80;23.17;;;;;;;;;;6275796;28;20132;-64
2022/01/25 16:48:38;;;;;;;55.47;24.45;;;;;;;;;;6281894;28;20045;-65
2022/01/25 16:51:40;;;;;;;55.72;23.77;;;;;;;;;;6277523;28;20129;-64
2022/01/25 16:54:43;;;;;;;57.58;23.33;;;;;;;;;;6278800;28;20070;-64
2022/01/25 16:57:46;;;;;;;58.72;24.98;;;;;;;;;;6277077;28;20040;-65
2022/01/25 17:00:49;;;;;;;58.40;24.20;;;;;;;;;;6277278;28;20115;-64
2022/01/25 17:03:50;;;;;;;55.47;22.02;;;;;;;;;;6279670;28;20051;-64
2022/01/25 17:06:52;;;;;;;51.92;22.10;;;;;;;;;;6281037;28;20052;-64
2022/01/25 17:09:54;;;;;;;51.63;21.77;;;;;;;;;;6284754;28;20079;-64
2022/01/25 17:12:56;;;;;;;46.95;21.83;;;;;;;;;;6284061;28;20100;-64
2022/01/25 17:16:00;;;;;;;55.17;23.50;;;;;;;;;;6280233;28;20118;-64
2022/01/25 17:19:01;;;;;;;53.47;22.77;;;;;;;;;;6282005;28;20072;-64
2022/01/25 17:22:03;;;;;;;48.17;22.70;;;;;;;;;;6271125;28;20098;-65
2022/01/25 17:25:07;;;;;;;50.45;22.52;;;;;;;;;;6276776;28;20487;-64
2022/01/25 17:28:10;;;;;;;48.37;22.53;;;;;;;;;;6275910;28;20064;-64
2022/01/25 17:31:11;;;;;;;50.97;22.13;;;;;;;;;;6280940;28;20135;-64
2022/01/25 17:34:14;;;;;;;52.25;22.67;;;;;;;;;;6279676;28;20448;-65
2022/01/25 17:37:16;;;;;;;50.42;22.52;;;;;;;;;;6284595;28;20084;-64
2022/01/25 17:40:17;;;;;;;57.03;23.90;;;;;;;;;;6280744;28;20048;-64
2022/01/25 17:43:20;;;;;;;48.50;21.65;;;;;;;;;;6286920;28;20384;-65
2022/01/25 17:46:22;;;;;;;57.83;25.05;;;;;;;;;;6284908;28;20131;-64
2022/01/25 17:49:23;;;;;;;45.67;22.65;;;;;;;;;;6285355;28;20095;-64
2022/01/25 17:52:25;;;;;;;51.35;22.50;;;;;;;;;;6284314;28;20099;-64
2022/01/25 17:55:27;;;;;;;54.10;22.67;;;;;;;;;;6284913;28;20102;-64
2022/01/25 17:58:30;;;;;;;51.90;23.40;;;;;;;;;;6290969;28;20163;-64
2022/01/25 18:01:31;;;;;;;50.60;21.05;;;;;;;;;;6286388;28;20179;-65
2022/01/25 18:04:33;;;;;;;49.42;21.67;;;;;;;;;;6289190;28;20531;-64
2022/01/25 18:07:34;;;;;;;54.40;24.73;;;;;;;;;;6287540;28;20045;-64
2022/01/25 18:10:36;;;;;;;54.13;23.13;;;;;;;;;;6284040;28;20128;-64
2022/01/25 18:13:39;;;;;;;49.10;23.67;;;;;;;;;;6290486;28;20080;-64
2022/01/25 18:16:41;;;;;;;54.20;23.67;;;;;;;;;;6288193;28;20048;-64
2022/01/25 18:19:43;;;;;;;49.70;23.10;;;;;;;;;;6287669;28;20081;-64
2022/01/25 18:22:52;;;;;;;58.45;23.58;;;;;;;;;;6283556;28;20041;-64
2022/01/25 18:25:57;;;;;;;52.17;23.95;;;;;;;;;;6280679;28;20117;-64
2022/01/25 18:29:00;;;;;;;56.83;22.90;;;;;;;;;;6283316;28;20515;-64
2022/01/25 18:32:02;;;;;;;52.75;24.15;;;;;;;;;;6280810;28;20135;-65
2022/01/25 18:35:04;;;;;;;56.35;25.65;;;;;;;;;;6281178;28;20087;-64
2022/01/25 18:38:05;;;;;;;56.60;23.73;;;;;;;;;;6285329;28;20199;-64
2022/01/25 18:41:07;;;;;;;56.42;24.33;;;;;;;;;;6281723;28;20110;-64
2022/01/25 18:44:11;;;;;;;60.13;26.55;;;;;;;;;;6280183;28;20222;-64
2022/01/25 18:47:13;;;;;;;54.08;23.45;;;;;;;;;;6281416;28;20562;-64
2022/01/25 18:50:21;;;;;;;57.33;25.15;;;;;;;;;;6282386;28;20123;-64
2022/01/25 18:53:24;;;;;;;58.53;24.63;;;;;;;;;;6278831;28;20516;-64
2022/01/25 18:56:26;;;;;;;61.78;26.27;;;;;;;;;;6284406;28;20124;-65
2022/01/25 18:59:29;;;;;;;60.38;25.25;;;;;;;;;;6286514;28;20087;-64
2022/01/25 19:02:36;;;;;;;54.03;23.20;;;;;;;;;;6283839;28;20500;-64
2022/01/25 19:05:37;;;;;;;62.38;25.77;;;;;;;;;;6286049;28;20052;-64
2022/01/25 19:08:39;;;;;;;56.13;25.88;;;;;;;;;;6287229;28;20072;-64
2022/01/25 19:11:43;;;;;;;58.42;27.80;;;;;;;;;;6280929;28;20298;-64
2022/01/25 19:14:46;;;;;;;59.03;26.90;;;;;;;;;;6280332;28;20124;-65